createdAt,value
2019-02-25T00:01:24.984Z,52.04
2019-02-25T00:03:54.706Z,51.48
2019-02-25T00:06:24.707Z,52.05
2019-02-25T00:08:54.552Z,52.16
2019-02-25T00:11:24.216Z,51.83
2019-02-25T00:13:54.125Z,52.67
2019-02-25T00:16:23.872Z,53.64
2019-02-25T00:18:53.758Z,54.32
2019-02-25T00:21:23.366Z,54.86
2019-02-25T00:23:53.517Z,55.07
2019-02-25T00:26:23.506Z,55.67
2019-02-25T00:28:53.238Z,55.93
2019-02-25T00:31:23.122Z,56.11
2019-02-25T00:33:52.758Z,55.81
2019-02-25T00:39:05.155Z,57.24
2019-02-25T00:41:36.132Z,56.98
2019-02-25T00:44:05.906Z,56.92
2019-02-25T00:46:35.632Z,57.01
2019-02-25T00:49:06.038Z,56.88
2019-02-25T00:51:36.374Z,56.13
2019-02-25T00:54:06.071Z,55.29
2019-02-25T00:56:36.003Z,53.69
2019-02-25T00:59:05.946Z,54.38
2019-02-25T01:01:35.542Z,54.13
2019-02-25T01:04:07.083Z,53.94
2019-02-25T01:06:36.768Z,53.83
2019-02-25T01:09:08.100Z,54.43
2019-02-25T01:11:38.488Z,54.51
2019-02-25T01:14:08.703Z,54.16
2019-02-25T01:16:38.989Z,54.59
2019-02-25T01:19:08.920Z,54.78
2019-02-25T01:21:39.807Z,55.73
2019-02-25T01:24:09.682Z,56.32
2019-02-25T01:26:39.352Z,57.16
2019-02-25T01:29:08.978Z,57.01
2019-02-25T01:31:39.129Z,57.45
2019-02-25T01:34:08.801Z,57.27
2019-02-25T01:36:38.648Z,55.85
2019-02-25T01:39:09.080Z,56.20
2019-02-25T01:41:38.947Z,57.36
2019-02-25T01:44:08.572Z,57.21
2019-02-25T01:46:38.427Z,57.15
2019-02-25T01:49:08.532Z,56.94
2019-02-25T01:51:38.399Z,57.52
2019-02-25T01:54:08.270Z,57.37
2019-02-25T01:56:38.103Z,57.12
2019-02-25T01:59:08.563Z,57.16
2019-02-25T02:01:38.174Z,56.71
2019-02-25T02:04:08.049Z,57.96
2019-02-25T02:06:37.917Z,57.12
2019-02-25T02:09:08.395Z,57.05
2019-02-25T02:11:38.756Z,56.39
2019-02-25T02:14:10.689Z,55.85
2019-02-25T02:16:40.390Z,56.57
2019-02-25T02:19:10.431Z,55.38
2019-02-25T02:21:40.822Z,55.74
2019-02-25T02:24:14.362Z,56.06
2019-02-25T02:26:44.798Z,55.23
2019-02-25T02:29:15.722Z,55.23
2019-02-25T02:31:45.425Z,56.80
2019-02-25T02:34:15.848Z,57.23
2019-02-25T02:36:46.386Z,56.07
2019-02-25T02:39:16.754Z,56.03
2019-02-25T02:42:20.887Z,56.81
2019-02-25T02:45:38.410Z,56.04
2019-02-25T02:48:11.838Z,56.21
2019-02-25T02:50:41.967Z,56.19
2019-02-25T02:53:11.951Z,56.89
2019-02-25T02:55:41.870Z,57.65
2019-02-25T02:58:11.780Z,57.89
2019-02-25T03:00:41.535Z,58.66
2019-02-25T03:03:11.262Z,58.92
2019-02-25T03:05:40.988Z,59.01
2019-02-25T03:08:10.677Z,59.44
2019-02-25T03:10:40.945Z,59.52
2019-02-25T03:13:10.992Z,60.05
2019-02-25T03:15:42.206Z,60.35
2019-02-25T03:18:11.959Z,60.19
2019-02-25T03:20:42.013Z,60.16
2019-02-25T03:23:11.747Z,59.98
2019-02-25T03:25:42.721Z,59.46
2019-02-25T03:28:12.988Z,60.40
2019-02-25T03:30:42.933Z,60.81
2019-02-25T03:33:12.937Z,60.81
2019-02-25T03:35:42.816Z,60.33
2019-02-25T03:38:12.516Z,60.03
2019-02-25T03:40:42.797Z,58.85
2019-02-25T03:43:12.540Z,59.02
2019-02-25T03:45:42.682Z,59.70
2019-02-25T03:48:12.623Z,60.73
2019-02-25T03:50:42.517Z,61.01
2019-02-25T03:53:12.486Z,60.95
2019-02-25T03:55:42.424Z,60.95
2019-02-25T03:58:12.472Z,60.99
2019-02-25T04:00:42.361Z,60.56
2019-02-25T04:03:12.257Z,60.61
2019-02-25T04:05:41.972Z,61.38
2019-02-25T04:08:11.802Z,61.11
2019-02-25T04:10:41.533Z,61.25
2019-02-25T04:13:11.501Z,61.45
2019-02-25T04:15:43.375Z,60.65
2019-02-25T04:18:13.077Z,60.84
2019-02-25T04:20:42.732Z,60.95
2019-02-25T04:23:12.339Z,60.88
2019-02-25T04:25:42.069Z,61.09
2019-02-25T04:28:11.686Z,60.65
2019-02-25T04:30:41.354Z,60.64
2019-02-25T04:33:11.000Z,59.67
2019-02-25T04:35:40.910Z,59.44
2019-02-25T04:38:13.303Z,58.66
2019-02-25T04:40:43.312Z,57.79
2019-02-25T04:43:14.349Z,56.79
2019-02-25T04:45:43.975Z,58.17
2019-02-25T04:48:13.759Z,58.24
2019-02-25T04:50:43.447Z,58.23
2019-02-25T04:53:13.075Z,58.98
2019-02-25T04:55:42.831Z,57.89
2019-02-25T04:58:12.480Z,58.49
2019-02-25T05:00:42.109Z,57.65
2019-02-25T05:03:12.086Z,57.92
2019-02-25T05:05:41.728Z,58.03
2019-02-25T05:08:11.600Z,57.82
2019-02-25T05:10:41.293Z,59.35
2019-02-25T05:13:10.975Z,59.19
2019-02-25T05:15:40.957Z,58.70
2019-02-25T05:18:10.909Z,57.94
2019-02-25T05:20:40.820Z,59.17
2019-02-25T05:23:10.538Z,59.02
2019-02-25T05:25:40.541Z,58.74
2019-02-25T05:28:10.428Z,58.80
2019-02-25T05:30:40.050Z,59.53
2019-02-25T05:33:09.842Z,58.91
2019-02-25T05:35:39.472Z,58.82
2019-02-25T05:38:10.038Z,59.12
2019-02-25T05:40:39.678Z,59.56
2019-02-25T05:43:09.412Z,60.01
2019-02-25T05:45:40.003Z,60.28
2019-02-25T05:48:09.695Z,60.02
2019-02-25T05:50:39.348Z,58.70
2019-02-25T05:53:09.049Z,59.52
2019-02-25T05:55:38.923Z,59.57
2019-02-25T05:58:08.570Z,59.08
2019-02-25T06:00:38.220Z,59.27
2019-02-25T06:03:08.095Z,58.60
2019-02-25T06:05:37.722Z,58.71
2019-02-25T06:08:07.661Z,59.63
2019-02-25T06:10:37.291Z,59.69
2019-02-25T06:13:06.930Z,59.78
2019-02-25T06:15:36.592Z,59.34
2019-02-25T06:18:06.515Z,59.29
2019-02-25T06:20:36.252Z,59.24
2019-02-25T06:23:05.881Z,59.84
2019-02-25T06:25:35.561Z,59.46
2019-02-25T06:28:05.312Z,59.94
2019-02-25T06:30:35.194Z,59.59
2019-02-25T06:33:04.954Z,59.50
2019-02-25T06:35:34.797Z,59.50
2019-02-25T06:38:05.081Z,59.85
2019-02-25T06:40:34.813Z,60.56
2019-02-25T06:43:05.379Z,59.83
2019-02-25T06:45:35.126Z,59.63
2019-02-25T06:48:05.168Z,59.71
2019-02-25T06:50:35.164Z,59.78
2019-02-25T06:53:05.045Z,59.41
2019-02-25T06:55:35.150Z,59.79
2019-02-25T06:58:05.755Z,58.57
2019-02-25T07:00:35.605Z,59.37
2019-02-25T07:03:05.327Z,58.99
2019-02-25T07:05:54.227Z,60.14
2019-02-25T07:08:40.879Z,60.41
2019-02-25T07:11:35.748Z,60.48
2019-02-25T07:14:19.189Z,60.28
2019-02-25T07:17:07.866Z,60.37
2019-02-25T07:20:11.927Z,60.18
2019-02-25T07:22:46.799Z,58.94
2019-02-25T07:25:38.149Z,59.25
2019-02-25T07:28:25.907Z,58.72
2019-02-25T07:31:11.584Z,58.05
2019-02-25T07:33:54.470Z,57.60
2019-02-25T07:36:32.871Z,56.47
2019-02-25T07:39:33.674Z,56.15
2019-02-25T07:42:31.541Z,55.97
2019-02-25T07:45:07.716Z,55.52
2019-02-25T07:47:57.435Z,53.42
2019-02-25T07:50:36.374Z,53.71
2019-02-25T07:53:14.574Z,52.38
2019-02-25T07:56:05.624Z,52.69
2019-02-25T07:58:48.258Z,51.37
2019-02-25T08:01:25.785Z,51.84
2019-02-25T08:04:12.357Z,50.92
2019-02-25T08:06:58.521Z,50.55
2019-02-25T08:09:57.888Z,49.70
2019-02-25T08:12:39.901Z,48.97
2019-02-25T08:15:19.973Z,47.85
2019-02-25T08:18:11.523Z,47.19
2019-02-25T08:20:59.142Z,47.46
2019-02-25T08:23:36.717Z,46.17
2019-02-25T08:26:24.750Z,44.67
2019-02-25T08:29:14.074Z,44.66
2019-02-25T08:31:51.532Z,43.99
2019-02-25T08:34:52.149Z,43.51
2019-02-25T08:37:45.011Z,42.99
2019-02-25T08:40:41.051Z,43.42
2019-02-25T08:43:22.509Z,43.98
2019-02-25T08:45:57.816Z,42.23
2019-02-25T08:48:34.839Z,41.91
2019-02-25T08:51:04.674Z,40.56
2019-02-25T08:53:34.341Z,40.78
2019-02-25T08:56:03.955Z,40.87
2019-02-25T08:58:33.662Z,40.05
2019-02-25T09:01:03.484Z,40.12
2019-02-25T09:03:33.099Z,39.85
2019-02-25T09:06:02.950Z,40.07
2019-02-25T09:08:32.654Z,39.81
2019-02-25T09:11:02.276Z,39.38
2019-02-25T09:13:32.185Z,38.86
2019-02-25T09:16:02.123Z,38.54
2019-02-25T09:18:34.118Z,38.16
2019-02-25T09:21:03.846Z,37.65
2019-02-25T09:23:34.001Z,36.82
2019-02-25T09:26:03.932Z,36.98
2019-02-25T09:28:33.843Z,36.46
2019-02-25T09:31:05.689Z,35.62
2019-02-25T09:33:35.488Z,35.23
2019-02-25T09:36:05.226Z,34.92
2019-02-25T09:38:34.877Z,33.29
2019-02-25T09:41:04.654Z,33.03
2019-02-25T09:43:34.380Z,33.06
2019-02-25T09:46:05.752Z,32.91
2019-02-25T09:48:35.770Z,32.54
2019-02-25T09:51:05.416Z,31.99
2019-02-25T09:53:35.324Z,31.58
2019-02-25T09:56:05.239Z,31.89
2019-02-25T09:58:34.913Z,31.41
2019-02-25T10:01:05.733Z,31.24
2019-02-25T10:03:35.658Z,31.19
2019-02-25T10:06:05.426Z,31.21
2019-02-25T10:08:35.130Z,30.63
2019-02-25T10:11:04.868Z,30.22
2019-02-25T10:13:35.193Z,30.05
2019-02-25T10:16:04.945Z,30.58
2019-02-25T10:18:34.853Z,29.66
2019-02-25T10:21:04.503Z,29.35
2019-02-25T10:23:34.507Z,29.09
2019-02-25T10:26:04.228Z,28.61
2019-02-25T10:28:34.253Z,28.36
2019-02-25T10:31:03.982Z,28.19
2019-02-25T10:33:33.825Z,27.79
2019-02-25T10:36:03.527Z,27.85
2019-02-25T10:38:33.458Z,27.93
2019-02-25T10:41:03.558Z,27.84
2019-02-25T10:43:34.597Z,28.30
2019-02-25T10:46:06.958Z,28.07
2019-02-25T10:48:37.498Z,27.77
2019-02-25T10:51:09.247Z,27.90
2019-02-25T10:53:39.017Z,27.83
2019-02-25T10:56:17.331Z,28.20
2019-02-25T10:58:48.011Z,27.76
2019-02-25T11:01:19.893Z,27.87
2019-02-25T11:03:54.313Z,27.94
2019-02-25T11:06:25.207Z,27.14
2019-02-25T11:09:15.767Z,27.18
2019-02-25T11:11:48.426Z,27.09
2019-02-25T11:14:18.101Z,27.41
2019-02-25T11:16:48.524Z,27.30
2019-02-25T11:19:19.132Z,28.34
2019-02-25T11:21:49.058Z,28.48
2019-02-25T11:24:20.718Z,28.87
2019-02-25T11:26:50.312Z,28.35
2019-02-25T11:29:20.528Z,27.97
2019-02-25T11:31:51.598Z,28.09
2019-02-25T11:34:21.689Z,27.96
2019-02-25T11:36:54.693Z,27.54
2019-02-25T11:39:27.463Z,27.74
2019-02-25T11:41:57.134Z,27.43
2019-02-25T11:44:31.258Z,28.62
2019-02-25T11:47:02.324Z,29.43
2019-02-25T11:49:32.238Z,29.77
2019-02-25T11:52:01.893Z,29.39
2019-02-25T11:54:31.517Z,29.45
2019-02-25T11:57:01.243Z,29.64
2019-02-25T11:59:30.886Z,29.19
2019-02-25T12:02:01.622Z,28.68
2019-02-25T12:04:31.838Z,28.47
2019-02-25T12:07:01.529Z,28.26
2019-02-25T12:09:31.413Z,27.73
2019-02-25T12:12:01.268Z,28.08
2019-02-25T12:14:30.978Z,27.37
2019-02-25T12:17:00.958Z,27.12
2019-02-25T12:19:30.908Z,27.47
2019-02-25T12:22:00.525Z,27.44
2019-02-25T12:24:30.238Z,27.20
2019-02-25T12:26:59.853Z,27.16
2019-02-25T12:29:29.575Z,26.29
2019-02-25T12:31:59.282Z,26.82
2019-02-25T12:34:28.937Z,27.16
2019-02-25T12:36:58.862Z,27.40
2019-02-25T12:39:28.614Z,27.10
2019-02-25T12:41:59.010Z,26.83
2019-02-25T12:44:28.995Z,26.92
2019-02-25T12:46:58.869Z,26.28
2019-02-25T12:49:28.860Z,26.92
2019-02-25T12:51:58.566Z,27.24
2019-02-25T12:54:28.796Z,27.32
2019-02-25T12:56:58.450Z,26.69
2019-02-25T12:59:28.096Z,26.63
2019-02-25T13:01:58.030Z,25.88
2019-02-25T13:04:27.702Z,26.32
2019-02-25T13:06:57.590Z,26.13
2019-02-25T13:09:30.166Z,27.29
2019-02-25T13:12:00.141Z,27.58
2019-02-25T13:14:30.302Z,27.54
2019-02-25T13:16:59.916Z,27.11
2019-02-25T13:19:29.560Z,26.97
2019-02-25T13:21:59.826Z,27.15
2019-02-25T13:24:30.837Z,26.62
2019-02-25T13:27:03.185Z,26.50
2019-02-25T13:29:33.260Z,26.16
2019-02-25T13:32:02.898Z,26.48
2019-02-25T13:34:32.541Z,26.21
2019-02-25T13:37:02.325Z,28.79
2019-02-25T13:39:32.031Z,29.03
2019-02-25T13:42:01.715Z,29.04
2019-02-25T13:44:31.723Z,29.25
2019-02-25T13:47:01.521Z,29.09
2019-02-25T13:49:31.210Z,28.42
2019-02-25T13:52:01.334Z,26.50
2019-02-25T13:54:31.984Z,26.87
2019-02-25T13:57:01.784Z,25.70
2019-02-25T13:59:31.439Z,25.62
2019-02-25T14:02:01.109Z,25.99
2019-02-25T14:04:30.795Z,25.98
2019-02-25T14:07:00.951Z,26.67
2019-02-25T14:09:30.634Z,27.07
2019-02-25T14:12:00.382Z,27.09
2019-02-25T14:14:30.263Z,27.16
2019-02-25T14:16:59.959Z,27.42
2019-02-25T14:19:29.654Z,27.77
2019-02-25T14:21:59.400Z,27.96
2019-02-25T14:24:29.848Z,27.86
2019-02-25T14:27:00.254Z,27.62
2019-02-25T14:29:30.677Z,27.96
2019-02-25T14:32:00.334Z,26.56
2019-02-25T14:34:32.335Z,26.01
2019-02-25T14:37:04.645Z,26.41
2019-02-25T14:39:36.029Z,27.37
2019-02-25T14:42:06.801Z,27.37
2019-02-25T14:44:38.107Z,27.27
2019-02-25T14:47:19.582Z,27.16
2019-02-25T14:49:42.933Z,26.12
2019-02-25T14:52:12.442Z,26.25
2019-02-25T14:54:42.054Z,26.83
2019-02-25T14:57:11.939Z,27.06
2019-02-25T14:59:42.058Z,27.75
2019-02-25T15:02:11.868Z,27.82
2019-02-25T15:04:42.224Z,28.31
2019-02-25T15:07:15.129Z,27.75
2019-02-25T15:09:45.765Z,27.91
2019-02-25T15:12:15.612Z,28.45
2019-02-25T15:14:45.831Z,28.72
2019-02-25T15:17:15.522Z,28.68
2019-02-25T15:19:45.281Z,28.71
2019-02-25T15:22:14.997Z,28.53
2019-02-25T15:24:47.927Z,28.49
2019-02-25T15:27:15.995Z,28.45
2019-02-25T15:29:46.809Z,28.89
2019-02-25T15:32:17.694Z,29.13
2019-02-25T15:34:48.571Z,29.48
2019-02-25T15:37:18.973Z,29.71
2019-02-25T15:39:48.861Z,29.47
2019-02-25T15:42:18.829Z,29.45
2019-02-25T15:44:51.219Z,29.79
2019-02-25T15:47:20.807Z,29.85
2019-02-25T15:49:50.594Z,30.27
2019-02-25T15:52:21.062Z,30.38
2019-02-25T15:54:51.868Z,30.62
2019-02-25T15:57:22.542Z,31.26
2019-02-25T15:59:54.175Z,31.69
2019-02-25T16:02:23.828Z,32.08
2019-02-25T16:04:54.055Z,32.51
2019-02-25T16:07:25.882Z,32.87
2019-02-25T16:09:57.117Z,33.03
2019-02-25T16:12:27.538Z,33.26
2019-02-25T16:14:58.609Z,33.83
2019-02-25T16:17:28.377Z,34.14
2019-02-25T16:19:58.276Z,34.41
2019-02-25T16:22:29.914Z,34.57
2019-02-25T16:25:00.625Z,34.91
2019-02-25T16:27:32.938Z,34.69
2019-02-25T16:30:03.651Z,35.07
2019-02-25T16:32:35.067Z,35.16
2019-02-25T16:35:07.172Z,35.21
2019-02-25T16:37:36.713Z,35.36
2019-02-25T16:40:10.134Z,35.44
2019-02-25T16:42:41.281Z,35.93
2019-02-25T16:45:14.196Z,36.11
2019-02-25T16:47:45.236Z,36.15
2019-02-25T16:50:16.487Z,37.04
2019-02-25T16:52:49.370Z,36.97
2019-02-25T16:55:20.613Z,36.99
2019-02-25T16:57:51.570Z,37.03
2019-02-25T17:00:24.816Z,37.34
2019-02-25T17:02:53.392Z,38.91
2019-02-25T17:05:23.556Z,39.03
2019-02-25T17:07:55.970Z,37.85
2019-02-25T17:10:27.115Z,37.71
2019-02-25T17:12:56.900Z,37.73
2019-02-25T17:15:27.365Z,38.12
2019-02-25T17:17:59.633Z,39.86
2019-02-25T17:20:28.894Z,39.22
2019-02-25T17:22:59.738Z,39.15
2019-02-25T17:25:31.612Z,39.16
2019-02-25T17:28:01.127Z,38.52
2019-02-25T17:30:31.117Z,38.76
2019-02-25T17:33:01.596Z,40.92
2019-02-25T17:35:32.485Z,40.33
2019-02-25T17:38:03.585Z,39.79
2019-02-25T17:40:33.528Z,40.50
2019-02-25T17:43:03.365Z,40.61
2019-02-25T17:45:34.475Z,39.38
2019-02-25T17:48:08.104Z,40.05
2019-02-25T17:50:39.116Z,40.66
2019-02-25T17:53:09.742Z,40.55
2019-02-25T17:55:39.948Z,40.02
2019-02-25T17:58:10.048Z,40.74
2019-02-25T18:00:42.441Z,40.81
2019-02-25T18:03:17.199Z,40.69
2019-02-25T18:05:47.325Z,42.04
2019-02-25T18:08:17.048Z,41.26
2019-02-25T18:10:47.486Z,41.47
2019-02-25T18:13:19.587Z,42.39
2019-02-25T18:15:51.487Z,42.75
2019-02-25T18:18:24.387Z,42.49
2019-02-25T18:20:54.083Z,42.87
2019-02-25T18:23:24.011Z,42.92
2019-02-25T18:25:58.097Z,43.48
2019-02-25T18:28:25.290Z,43.78
2019-02-25T18:30:55.198Z,43.60
2019-02-25T18:33:26.869Z,43.75
2019-02-25T18:35:59.785Z,43.48
2019-02-25T18:38:30.101Z,43.41
2019-02-25T18:41:02.413Z,43.02
2019-02-25T18:43:32.692Z,43.03
2019-02-25T18:46:04.824Z,42.57
2019-02-25T18:48:34.124Z,41.96
2019-02-25T18:51:05.961Z,40.98
2019-02-25T18:53:35.942Z,41.07
2019-02-25T18:56:06.078Z,41.64
2019-02-25T18:58:37.543Z,41.34
2019-02-25T19:01:09.705Z,42.37
2019-02-25T19:03:40.335Z,42.18
2019-02-25T19:06:10.436Z,43.18
2019-02-25T19:08:43.263Z,42.33
2019-02-25T19:11:13.288Z,42.94
2019-02-25T19:13:45.816Z,42.41
2019-02-25T19:16:16.349Z,39.88
2019-02-25T19:18:47.741Z,40.55
2019-02-25T19:21:18.887Z,41.79
2019-02-25T19:23:48.805Z,41.58
2019-02-25T19:26:19.637Z,41.75
2019-02-25T19:28:52.056Z,42.32
2019-02-25T19:31:21.440Z,42.60
2019-02-25T19:33:52.354Z,41.50
2019-02-25T19:36:25.695Z,41.96
2019-02-25T19:38:54.173Z,42.04
2019-02-25T19:41:25.889Z,42.90
2019-02-25T19:43:59.202Z,44.79
2019-02-25T19:46:27.209Z,43.87
2019-02-25T19:48:57.389Z,44.43
2019-02-25T19:51:28.041Z,44.63
2019-02-25T19:53:59.810Z,45.12
2019-02-25T19:56:30.555Z,45.92
2019-02-25T19:59:03.740Z,45.56
2019-02-25T20:01:32.967Z,45.04
2019-02-25T20:04:06.421Z,44.66
2019-02-25T20:06:34.088Z,45.12
2019-02-25T20:09:07.407Z,44.79
2019-02-25T20:11:38.287Z,45.86
2019-02-25T20:14:10.886Z,45.38
2019-02-25T20:16:40.776Z,45.45
2019-02-25T20:19:10.513Z,45.37
2019-02-25T20:21:40.335Z,45.01
2019-02-25T20:24:14.380Z,45.52
2019-02-25T20:26:41.858Z,45.74
2019-02-25T20:29:12.750Z,46.33
2019-02-25T20:31:43.247Z,46.57
2019-02-25T20:34:18.509Z,46.85
2019-02-25T20:36:48.330Z,46.85
2019-02-25T20:39:18.991Z,46.96
2019-02-25T20:41:50.725Z,47.37
2019-02-25T20:44:23.939Z,47.75
2019-02-25T20:46:55.076Z,48.14
2019-02-25T20:49:29.318Z,47.62
2019-02-25T20:52:00.922Z,48.02
2019-02-25T20:54:28.720Z,48.00
2019-02-25T20:56:59.553Z,47.81
2019-02-25T20:59:30.897Z,47.58
2019-02-25T21:02:00.953Z,48.22
2019-02-25T21:04:30.736Z,48.49
2019-02-25T21:07:02.261Z,48.49
2019-02-25T21:09:33.662Z,48.00
2019-02-25T21:12:04.169Z,48.40
2019-02-25T21:14:35.580Z,48.75
2019-02-25T21:17:06.240Z,48.71
2019-02-25T21:19:37.805Z,48.92
2019-02-25T21:22:08.763Z,49.21
2019-02-25T21:24:38.904Z,49.38
2019-02-25T21:27:10.416Z,49.39
2019-02-25T21:29:41.286Z,49.15
2019-02-25T21:32:15.081Z,49.59
2019-02-25T21:34:46.184Z,49.73
2019-02-25T21:37:14.802Z,49.49
2019-02-25T21:39:44.488Z,48.87
2019-02-25T21:42:17.062Z,48.76
2019-02-25T21:44:48.315Z,48.76
2019-02-25T21:47:20.167Z,47.83
2019-02-25T21:49:49.968Z,48.46
2019-02-25T21:52:20.001Z,47.96
2019-02-25T21:54:49.783Z,47.98
2019-02-25T21:57:19.450Z,48.34
2019-02-25T21:59:49.386Z,49.28
2019-02-25T22:02:19.260Z,48.82
2019-02-25T22:04:50.164Z,48.80
2019-02-25T22:07:24.379Z,49.15
2019-02-25T22:09:52.062Z,48.98
2019-02-25T22:12:21.794Z,49.48
2019-02-25T22:14:52.190Z,49.59
2019-02-25T22:17:22.999Z,50.18
2019-02-25T22:19:53.561Z,50.23
2019-02-25T22:22:26.211Z,50.30
2019-02-25T22:24:54.882Z,50.85
2019-02-25T22:27:24.504Z,51.42
2019-02-25T22:29:54.453Z,51.75
2019-02-25T22:32:24.374Z,51.78
2019-02-25T22:34:56.045Z,51.27
2019-02-25T22:37:26.874Z,51.46
2019-02-25T22:39:57.136Z,51.36
2019-02-25T22:42:27.429Z,51.55
2019-02-25T22:44:58.574Z,50.93
2019-02-25T22:47:28.422Z,51.05
2019-02-25T22:49:58.184Z,51.15
2019-02-25T22:52:29.263Z,51.61
2019-02-25T22:54:59.675Z,52.73
2019-02-25T22:57:29.662Z,52.79
2019-02-25T22:59:59.526Z,52.94
2019-02-25T23:02:29.627Z,52.74
2019-02-25T23:04:59.695Z,52.93
2019-02-25T23:07:29.357Z,52.14
2019-02-25T23:09:59.269Z,52.63
2019-02-25T23:12:31.091Z,52.04
2019-02-25T23:15:03.153Z,52.40
2019-02-25T23:17:35.696Z,52.34
2019-02-25T23:20:09.351Z,52.48
2019-02-25T23:22:39.130Z,52.03
2019-02-25T23:25:08.878Z,52.58
2019-02-25T23:27:39.296Z,52.14
2019-02-25T23:30:09.416Z,52.87
2019-02-25T23:32:39.573Z,52.49
2019-02-25T23:35:13.379Z,52.31
2019-02-25T23:37:40.884Z,52.55
2019-02-25T23:40:12.522Z,52.46
2019-02-25T23:42:44.138Z,52.62
2019-02-25T23:45:15.452Z,51.92
2019-02-25T23:47:47.285Z,51.81
2019-02-25T23:50:16.969Z,52.45
2019-02-25T23:52:46.584Z,52.37
2019-02-25T23:55:18.930Z,52.35
2019-02-25T23:57:48.952Z,52.33
